Time;durP1;ratioP1;P1;durP2;ratioP2;P2;SDS_P1;SDS_P2;PMS_P1;PMS_P2;Temp;Humidity;BMP_temperature;BMP_pressure;BME280_temperature;BME280_humidity;BME280_pressure;Samples;Min_cycle;Max_cycle;Signal;HPM_P1;HPM_P2
2022/03/23 00:09:51;;;;;;;28.10;16.42;;;9.50;39.50;;;;;;5015429;28;20406;-60
2022/03/23 00:12:18;;;;;;;29.55;17.88;;;9.50;39.40;;;;;;5051554;28;20025;-62
2022/03/23 00:14:50;;;;;;;33.15;17.58;;;9.50;39.40;;;;;;5050509;28;20115;-62
2022/03/23 00:17:16;;;;;;;26.73;17.33;;;9.50;39.50;;;;;;5058592;28;20024;-63
2022/03/23 00:19:42;;;;;;;35.45;17.77;;;9.40;39.60;;;;;;5070170;28;20028;-61
2022/03/23 00:22:08;;;;;;;29.38;16.63;;;9.40;39.70;;;;;;5070912;28;20381;-63
2022/03/23 00:24:36;;;;;;;34.08;17.73;;;9.40;39.70;;;;;;5052552;28;20028;-59
2022/03/23 00:27:02;;;;;;;26.70;17.08;;;9.30;39.70;;;;;;5070766;28;20367;-61
2022/03/23 00:29:29;;;;;;;30.52;17.10;;;9.30;39.80;;;;;;5072416;28;20075;-62
2022/03/23 00:31:56;;;;;;;31.40;16.77;;;9.30;40.00;;;;;;5090275;28;20050;-62
2022/03/23 00:34:22;;;;;;;31.90;18.48;;;9.30;40.10;;;;;;5086911;28;20033;-62
2022/03/23 00:36:51;;;;;;;33.72;17.58;;;9.20;40.20;;;;;;5067133;28;20032;-61
2022/03/23 00:39:17;;;;;;;32.75;17.73;;;9.20;40.30;;;;;;5073614;28;20033;-63
2022/03/23 00:41:49;;;;;;;30.98;17.33;;;9.10;40.30;;;;;;5055764;28;20025;-61
2022/03/23 00:44:15;;;;;;;31.08;17.65;;;9.10;40.50;;;;;;5078324;28;20346;-57
2022/03/23 00:46:42;;;;;;;33.38;17.73;;;9.10;40.50;;;;;;5091322;28;20031;-60
2022/03/23 00:49:09;;;;;;;34.00;17.63;;;9.10;40.50;;;;;;5094432;28;20027;-63
2022/03/23 00:51:35;;;;;;;30.85;17.70;;;9.10;40.60;;;;;;5094137;28;20027;-57
2022/03/23 00:54:10;;;;;;;29.80;17.77;;;9.10;40.60;;;;;;5075610;28;20020;-62
2022/03/23 00:56:37;;;;;;;31.88;17.08;;;9.10;40.80;;;;;;5075401;28;20020;-60
2022/03/23 00:59:04;;;;;;;27.58;16.15;;;9.00;40.90;;;;;;5069823;28;20036;-62
2022/03/23 01:01:30;;;;;;;29.48;16.60;;;8.90;41.00;;;;;;5073938;28;20056;-62
2022/03/23 01:03:56;;;;;;;27.48;15.95;;;8.90;41.10;;;;;;5073131;28;20107;-62
2022/03/23 01:06:24;;;;;;;32.55;17.35;;;8.80;41.20;;;;;;5074126;28;20119;-61
2022/03/23 01:08:51;;;;;;;33.78;17.13;;;8.80;41.10;;;;;;5084257;28;20033;-61
2022/03/23 01:11:24;;;;;;;29.77;15.40;;;8.80;41.20;;;;;;5072138;28;20071;-61
2022/03/23 01:13:50;;;;;;;29.10;16.38;;;8.80;41.20;;;;;;5073266;28;20073;-62
2022/03/23 01:16:32;;;;;;;32.78;17.15;;;8.80;42.00;;;;;;5064551;28;20024;-60
2022/03/23 01:19:00;;;;;;;27.95;16.52;;;8.70;41.40;;;;;;5077832;28;20560;-61
2022/03/23 01:21:27;;;;;;;29.73;16.02;;;8.70;41.50;;;;;;5060551;28;20020;-62
2022/03/23 01:23:53;;;;;;;31.52;16.67;;;8.60;41.60;;;;;;5092996;28;20043;-63
2022/03/23 01:26:19;;;;;;;28.98;15.90;;;8.60;41.70;;;;;;5092391;28;20032;-61
2022/03/23 01:28:45;;;;;;;27.48;16.63;;;8.50;41.80;;;;;;5080223;28;20078;-61
2022/03/23 01:31:10;;;;;;;32.97;16.60;;;8.50;41.80;;;;;;5072705;28;20433;-61
2022/03/23 01:33:37;;;;;;;28.50;16.25;;;8.50;41.90;;;;;;5059524;28;20051;-60
2022/03/23 01:36:03;;;;;;;29.75;16.00;;;8.50;42.00;;;;;;5050825;28;20031;-62
2022/03/23 01:38:29;;;;;;;33.75;16.20;;;8.40;42.00;;;;;;5052049;28;20021;-61
2022/03/23 01:40:55;;;;;;;26.50;15.68;;;8.30;42.00;;;;;;5068992;28;20427;-62
2022/03/23 01:43:21;;;;;;;29.10;15.98;;;8.30;42.10;;;;;;5077675;28;20388;-62
2022/03/23 01:45:46;;;;;;;28.85;16.00;;;8.30;42.10;;;;;;5066410;28;20683;-60
2022/03/23 01:48:12;;;;;;;29.45;15.30;;;8.30;42.00;;;;;;5080995;28;20467;-61
2022/03/23 01:50:38;;;;;;;26.58;16.08;;;8.30;42.10;;;;;;5055997;28;20031;-60
2022/03/23 01:53:03;;;;;;;27.92;15.65;;;8.30;42.10;;;;;;5067448;28;20025;-62
2022/03/23 01:55:29;;;;;;;28.30;15.65;;;8.20;42.10;;;;;;5047522;28;20047;-63
2022/03/23 01:57:55;;;;;;;28.13;15.35;;;8.20;42.20;;;;;;5078873;28;20056;-62
2022/03/23 02:00:21;;;;;;;24.52;14.63;;;8.20;42.20;;;;;;5069353;28;20025;-61
2022/03/23 02:02:47;;;;;;;31.27;14.95;;;8.10;42.20;;;;;;5065113;28;20028;-60
2022/03/23 02:05:14;;;;;;;24.25;14.57;;;8.20;42.30;;;;;;5078029;28;20103;-62
2022/03/23 02:07:40;;;;;;;24.35;14.30;;;8.10;42.40;;;;;;5076518;28;20036;-59
2022/03/23 02:10:07;;;;;;;31.35;14.80;;;8.00;42.40;;;;;;5074417;28;20040;-61
2022/03/23 02:12:33;;;;;;;25.33;14.07;;;8.00;42.30;;;;;;5074750;28;20041;-62
2022/03/23 02:15:00;;;;;;;25.95;14.50;;;7.90;42.30;;;;;;5066081;28;20501;-62
2022/03/23 02:17:26;;;;;;;34.42;15.75;;;7.90;42.30;;;;;;5073652;28;20524;-61
2022/03/23 02:19:52;;;;;;;26.38;13.82;;;8.00;42.50;;;;;;5090138;28;20024;-62
2022/03/23 02:22:18;;;;;;;24.70;14.10;;;7.90;42.50;;;;;;5091800;28;20024;-62
2022/03/23 02:24:46;;;;;;;23.33;13.93;;;7.90;42.70;;;;;;5073592;28;20097;-60
2022/03/23 02:27:13;;;;;;;23.70;14.05;;;7.90;42.70;;;;;;5089421;28;20028;-61
2022/03/23 02:29:39;;;;;;;23.77;14.43;;;7.80;42.70;;;;;;5092254;28;20418;-62
2022/03/23 02:32:05;;;;;;;24.13;14.38;;;7.80;42.60;;;;;;5091092;28;20024;-61
2022/03/23 02:34:33;;;;;;;28.63;15.00;;;7.80;42.60;;;;;;5078372;28;20107;-62
2022/03/23 02:36:59;;;;;;;26.63;15.02;;;7.80;42.60;;;;;;5054031;28;20119;-62
2022/03/23 02:39:28;;;;;;;26.20;14.15;;;7.80;42.60;;;;;;5072204;28;20543;-63
2022/03/23 02:41:56;;;;;;;22.48;13.98;;;7.80;42.70;;;;;;5082988;28;20032;-62
2022/03/23 02:44:22;;;;;;;26.92;13.73;;;7.80;42.70;;;;;;5074772;28;20630;-62
2022/03/23 02:46:48;;;;;;;21.55;12.95;;;7.80;42.70;;;;;;5068202;28;20039;-61
2022/03/23 02:49:20;;;;;;;24.17;14.82;;;7.80;42.90;;;;;;5074324;28;20028;-64
2022/03/23 02:51:47;;;;;;;29.30;13.95;;;7.80;42.80;;;;;;5039838;28;20056;-58
2022/03/23 03:03:33;;;;;;;24.55;13.20;;;7.70;43.10;;;;;;4960612;28;20033;-61
2022/03/23 03:06:04;;;;;;;24.48;13.88;;;7.70;42.90;;;;;;5047568;28;20036;-61
2022/03/23 03:08:45;;;;;;;22.63;13.35;;;7.70;43.10;;;;;;5067449;28;20385;-61
2022/03/23 03:11:12;;;;;;;24.33;13.73;;;7.70;43.10;;;;;;5070544;28;20051;-62
2022/03/23 03:13:40;;;;;;;23.42;12.88;;;7.60;43.20;;;;;;5071311;28;20025;-61
2022/03/23 03:16:06;;;;;;;23.05;12.77;;;7.60;43.40;;;;;;5071096;28;20100;-61
2022/03/23 03:18:33;;;;;;;25.38;13.13;;;7.50;43.40;;;;;;5071360;28;20395;-62
2022/03/23 03:21:10;;;;;;;28.05;12.98;;;7.50;43.50;;;;;;5054781;28;20027;-62
2022/03/23 03:23:43;;;;;;;22.63;13.02;;;7.50;43.70;;;;;;5080652;28;20094;-61
2022/03/23 03:26:09;;;;;;;23.65;12.93;;;7.40;43.60;;;;;;5052664;28;20031;-62
2022/03/23 03:28:41;;;;;;;20.38;12.82;;;7.40;43.70;;;;;;5071318;28;20025;-61
2022/03/23 03:31:13;;;;;;;20.67;12.68;;;7.40;43.90;;;;;;5055516;28;20050;-62
2022/03/23 03:33:42;;;;;;;23.05;12.55;;;7.40;43.90;;;;;;5062044;28;20077;-62
2022/03/23 03:36:09;;;;;;;25.98;13.07;;;7.40;43.90;;;;;;5090648;28;20025;-62
2022/03/23 03:38:37;;;;;;;22.92;12.77;;;7.40;43.90;;;;;;5058230;28;20409;-62
2022/03/23 03:41:12;;;;;;;17.63;11.23;;;7.40;43.90;;;;;;5073315;28;20032;-60
2022/03/23 03:43:38;;;;;;;19.30;11.90;;;7.40;44.00;;;;;;5083549;28;20032;-63
2022/03/23 03:46:06;;;;;;;19.25;12.10;;;7.30;44.00;;;;;;5090618;28;20016;-61
2022/03/23 03:48:32;;;;;;;22.65;13.18;;;7.30;44.00;;;;;;5071956;28;20052;-63
2022/03/23 03:50:58;;;;;;;21.73;11.63;;;7.30;44.00;;;;;;5052364;28;20060;-62
2022/03/23 03:53:23;;;;;;;23.23;12.15;;;7.30;44.00;;;;;;5070976;28;20036;-61
2022/03/23 03:55:49;;;;;;;20.83;11.88;;;7.30;44.00;;;;;;5070594;28;20494;-57
2022/03/23 03:58:18;;;;;;;19.77;11.70;;;7.30;44.00;;;;;;5072889;28;20028;-61
2022/03/23 04:00:44;;;;;;;25.67;13.43;;;7.30;43.90;;;;;;5053429;28;20020;-61
2022/03/23 04:03:12;;;;;;;23.50;11.93;;;7.40;44.00;;;;;;5054484;28;20458;-61
2022/03/23 04:05:38;;;;;;;23.20;11.43;;;7.40;43.90;;;;;;5086635;28;20024;-61
2022/03/23 04:08:05;;;;;;;24.63;11.63;;;7.40;43.80;;;;;;5055448;28;20050;-62
2022/03/23 04:10:31;;;;;;;24.30;12.15;;;7.40;43.70;;;;;;5051168;28;20040;-62
2022/03/23 04:12:57;;;;;;;22.23;12.07;;;7.50;43.80;;;;;;5080212;28;20047;-63
2022/03/23 04:15:26;;;;;;;20.15;12.30;;;7.40;43.70;;;;;;5074268;28;20079;-62
2022/03/23 04:17:54;;;;;;;20.42;11.82;;;7.50;43.70;;;;;;5075508;28;20202;-59
2022/03/23 04:20:20;;;;;;;20.52;11.98;;;7.50;43.70;;;;;;5064376;28;20111;-62
2022/03/23 04:22:46;;;;;;;23.85;12.73;;;7.50;43.70;;;;;;5074414;28;20067;-63
2022/03/23 04:25:13;;;;;;;26.60;11.85;;;7.50;43.80;;;;;;5082404;28;20474;-62
2022/03/23 04:27:45;;;;;;;24.02;12.65;;;7.50;43.90;;;;;;5075614;28;20054;-61
2022/03/23 04:30:12;;;;;;;23.05;13.35;;;7.50;44.00;;;;;;5065851;28;20055;-61
2022/03/23 04:32:37;;;;;;;21.00;12.65;;;7.50;44.20;;;;;;5054317;28;20040;-61
2022/03/23 04:35:04;;;;;;;20.52;12.75;;;7.50;44.30;;;;;;5067883;28;20037;-61
2022/03/23 04:37:30;;;;;;;20.27;12.25;;;7.50;44.40;;;;;;5064862;28;20067;-61
2022/03/23 04:39:56;;;;;;;26.02;13.90;;;7.50;44.40;;;;;;5073304;28;20429;-60
2022/03/23 04:42:22;;;;;;;28.45;13.77;;;7.50;44.60;;;;;;5092208;28;20496;-62
2022/03/23 04:44:48;;;;;;;21.20;12.70;;;7.50;44.70;;;;;;5070891;28;20036;-62
2022/03/23 04:47:13;;;;;;;24.38;13.80;;;7.50;44.70;;;;;;5079578;28;20032;-61
2022/03/23 04:49:39;;;;;;;25.52;14.45;;;7.50;44.80;;;;;;5094395;28;20468;-62
2022/03/23 04:52:06;;;;;;;29.30;13.55;;;7.50;44.90;;;;;;5093583;28;20103;-61
2022/03/23 04:54:31;;;;;;;23.13;13.30;;;7.50;44.80;;;;;;5074277;28;20028;-62
2022/03/23 04:56:57;;;;;;;32.08;14.05;;;7.50;45.00;;;;;;5085164;28;20377;-60
2022/03/23 04:59:23;;;;;;;28.13;15.68;;;7.50;44.90;;;;;;5073241;28;20020;-62
2022/03/23 05:01:49;;;;;;;30.75;14.20;;;7.50;45.40;;;;;;5076028;28;20020;-62
2022/03/23 05:04:15;;;;;;;38.13;18.13;;;7.60;45.30;;;;;;5075921;28;20039;-61
2022/03/23 05:06:40;;;;;;;35.30;16.35;;;7.60;46.40;;;;;;5073482;28;20077;-61
2022/03/23 05:09:06;;;;;;;37.13;16.73;;;7.50;46.30;;;;;;5076247;28;20053;-61
2022/03/23 05:11:32;;;;;;;30.13;15.43;;;7.50;46.00;;;;;;5073643;28;20386;-62
2022/03/23 05:13:57;;;;;;;32.55;16.13;;;7.60;46.00;;;;;;5054924;28;20396;-61
2022/03/23 05:16:24;;;;;;;31.27;17.17;;;7.60;45.90;;;;;;5079988;28;20013;-62
2022/03/23 05:18:50;;;;;;;36.47;17.80;;;7.70;46.10;;;;;;5078577;28;20021;-62
2022/03/23 05:21:15;;;;;;;32.05;16.80;;;7.70;46.10;;;;;;5074018;28;20388;-61
2022/03/23 05:23:41;;;;;;;37.53;18.75;;;7.70;46.10;;;;;;5059365;28;20034;-62
2022/03/23 05:26:07;;;;;;;38.97;18.60;;;7.80;46.20;;;;;;5085162;28;20028;-61
2022/03/23 05:28:32;;;;;;;34.72;18.60;;;7.80;46.30;;;;;;5093606;28;20028;-61
2022/03/23 05:30:58;;;;;;;25.58;15.07;;;7.70;46.20;;;;;;5092224;28;20102;-63
2022/03/23 05:33:24;;;;;;;32.70;14.88;;;7.80;45.80;;;;;;5047257;28;20032;-61
2022/03/23 05:35:49;;;;;;;45.10;20.33;;;7.80;45.60;;;;;;5072603;28;20377;-62
2022/03/23 05:38:15;;;;;;;39.13;18.30;;;7.80;45.60;;;;;;5092542;28;20023;-62
2022/03/23 05:40:40;;;;;;;36.67;16.45;;;7.90;45.50;;;;;;5081830;28;20410;-62
2022/03/23 05:43:06;;;;;;;47.83;21.40;;;7.90;45.20;;;;;;5072191;28;20036;-63
2022/03/23 05:45:32;;;;;;;41.45;19.23;;;7.90;45.00;;;;;;5078935;28;20433;-63
2022/03/23 05:47:59;;;;;;;41.53;21.08;;;7.90;44.40;;;;;;5069457;28;20102;-56
2022/03/23 05:50:24;;;;;;;51.55;22.73;;;7.90;44.40;;;;;;5081216;28;20354;-61
2022/03/23 05:52:50;;;;;;;55.40;23.35;;;8.00;43.50;;;;;;5055201;28;20036;-62
2022/03/23 05:55:16;;;;;;;62.80;22.40;;;7.90;43.30;;;;;;5074607;28;20024;-62
2022/03/23 05:57:41;;;;;;;68.15;27.10;;;7.90;42.30;;;;;;5091716;28;20046;-63
2022/03/23 06:00:10;;;;;;;66.88;23.75;;;8.00;42.10;;;;;;5085346;28;20024;-62
2022/03/23 06:02:36;;;;;;;60.45;25.42;;;8.00;41.80;;;;;;5062380;28;20024;-63
2022/03/23 06:05:01;;;;;;;68.03;23.42;;;8.00;41.50;;;;;;5057226;28;20035;-62
2022/03/23 06:07:27;;;;;;;55.63;24.30;;;8.00;41.50;;;;;;5060004;28;20055;-64
2022/03/23 06:09:53;;;;;;;86.80;25.88;;;8.10;41.30;;;;;;5063992;28;20524;-64
2022/03/23 06:12:20;;;;;;;46.17;22.98;;;8.10;41.20;;;;;;5071636;28;20032;-64
2022/03/23 06:14:47;;;;;;;104.40;26.55;;;8.10;40.50;;;;;;5073738;28;20029;-62
2022/03/23 06:17:13;;;;;;;78.35;25.77;;;8.10;40.70;;;;;;5089342;28;20140;-64
2022/03/23 06:19:40;;;;;;;79.80;25.33;;;8.20;40.50;;;;;;5072434;28;20495;-63
2022/03/23 06:22:05;;;;;;;62.60;26.13;;;8.20;40.40;;;;;;5091685;28;20058;-64
2022/03/23 06:24:31;;;;;;;56.83;24.67;;;8.30;40.20;;;;;;5091341;28;20024;-62
2022/03/23 06:26:57;;;;;;;68.25;24.80;;;8.40;39.90;;;;;;5089510;28;20036;-60
2022/03/23 06:29:23;;;;;;;59.70;24.02;;;8.30;39.80;;;;;;5075162;28;20031;-62
2022/03/23 06:34:33;;;;;;;62.45;25.02;;;8.50;39.70;;;;;;5072407;28;20119;-63
2022/03/23 06:37:01;;;;;;;71.72;26.05;;;8.60;39.40;;;;;;5091738;28;20056;-58
2022/03/23 06:39:29;;;;;;;56.35;25.25;;;8.60;39.30;;;;;;5070374;28;20393;-64
2022/03/23 06:41:54;;;;;;;60.10;24.63;;;8.70;39.20;;;;;;5053679;28;20516;-64
2022/03/23 06:44:20;;;;;;;59.03;24.77;;;8.80;39.20;;;;;;5071036;28;20052;-63
2022/03/23 06:46:46;;;;;;;62.30;23.33;;;8.90;39.00;;;;;;5081206;28;20142;-62
2022/03/23 06:49:12;;;;;;;54.75;23.80;;;9.00;38.90;;;;;;5053456;28;20394;-62
2022/03/23 06:51:38;;;;;;;49.97;24.17;;;9.00;38.50;;;;;;5069621;28;20058;-63
2022/03/23 06:54:03;;;;;;;54.30;24.08;;;9.10;38.20;;;;;;5071718;28;20492;-62
2022/03/23 06:56:29;;;;;;;71.10;27.02;;;9.10;38.20;;;;;;5071437;28;20016;-64
2022/03/23 06:58:56;;;;;;;58.55;24.58;;;9.20;38.10;;;;;;5052812;28;20491;-61
2022/03/23 07:01:22;;;;;;;89.57;29.98;;;9.30;37.80;;;;;;5070708;28;20047;-67
2022/03/23 07:03:48;;;;;;;62.30;24.63;;;9.40;37.80;;;;;;5086450;28;20038;-66
2022/03/23 07:06:20;;;;;;;67.90;26.13;;;9.50;37.80;;;;;;5070004;28;20055;-65
2022/03/23 07:11:32;;;;;;;51.15;24.63;;;9.70;37.20;;;;;;5070673;28;20048;-64
2022/03/23 07:13:57;;;;;;;53.17;23.88;;;9.80;37.00;;;;;;5086884;28;20020;-64
2022/03/23 07:16:23;;;;;;;70.28;25.83;;;9.90;36.80;;;;;;5068027;28;20491;-66
2022/03/23 07:18:49;;;;;;;99.38;25.67;;;10.00;36.90;;;;;;5062088;28;20488;-66
2022/03/23 07:21:15;;;;;;;52.83;23.75;;;10.10;36.80;;;;;;5065641;28;20024;-65
2022/03/23 07:23:41;;;;;;;58.22;25.52;;;10.20;36.60;;;;;;5058294;28;20024;-64
2022/03/23 07:26:06;;;;;;;51.30;24.40;;;10.80;37.10;;;;;;5050025;28;20365;-65
2022/03/23 08:10:45;;;;;;;35.50;22.38;;;40.00;17.40;;;;;;5181483;22;20054;-63
2022/03/23 08:13:12;;;;;;;30.25;18.60;;;40.50;17.20;;;;;;5026526;28;20087;-53
2022/03/23 08:15:39;;;;;;;21.98;15.90;;;40.70;17.00;;;;;;5031492;28;20441;-51
2022/03/23 08:18:05;;;;;;;26.55;16.65;;;39.60;16.70;;;;;;5013339;28;20018;-56
2022/03/23 08:20:37;;;;;;;21.42;16.15;;;38.60;16.90;;;;;;5013696;28;20029;-56
2022/03/23 08:23:05;;;;;;;24.65;15.48;;;38.50;17.00;;;;;;5013125;28;20025;-59
2022/03/23 08:25:31;;;;;;;19.45;15.48;;;38.50;16.90;;;;;;5013714;28;20029;-54
2022/03/23 08:27:58;;;;;;;23.42;14.77;;;38.40;16.80;;;;;;5030826;28;20065;-57
2022/03/23 08:30:25;;;;;;;22.02;15.15;;;38.30;16.80;;;;;;5031090;28;20026;-58
2022/03/23 08:32:51;;;;;;;16.33;13.48;;;38.40;16.70;;;;;;5012962;28;20060;-53
2022/03/23 08:35:16;;;;;;;32.45;16.35;;;38.10;16.60;;;;;;5013460;28;20033;-55
2022/03/23 08:37:42;;;;;;;17.45;13.13;;;37.80;16.40;;;;;;5031242;28;20029;-58
2022/03/23 08:40:09;;;;;;;24.27;15.23;;;37.50;16.60;;;;;;5012577;28;20017;-55
2022/03/23 08:42:34;;;;;;;19.35;13.68;;;36.40;16.40;;;;;;5027397;28;20370;-57
2022/03/23 08:45:02;;;;;;;19.73;12.45;;;34.00;16.50;;;;;;5028242;28;20049;-55
2022/03/23 08:47:48;;;;;;;24.30;14.20;;;31.60;17.20;;;;;;5011483;28;20037;-56
2022/03/23 08:50:15;;;;;;;25.65;15.55;;;29.30;17.70;;;;;;5013008;28;20053;-57
2022/03/23 08:52:43;;;;;;;31.00;14.85;;;27.80;18.60;;;;;;5016155;28;20096;-57
2022/03/23 08:55:17;;;;;;;26.95;15.70;;;26.30;18.90;;;;;;5016343;28;20096;-54
2022/03/23 08:57:43;;;;;;;27.02;15.73;;;25.20;19.50;;;;;;5014984;28;20038;-56
2022/03/23 09:00:11;;;;;;;35.28;15.82;;;24.20;19.90;;;;;;5031978;28;20041;-57
2022/03/23 09:02:38;;;;;;;36.72;16.98;;;23.10;20.70;;;;;;5032320;28;20033;-56
2022/03/23 09:05:09;;;;;;;23.77;14.45;;;22.10;21.40;;;;;;5014955;28;20284;-58
2022/03/23 09:07:39;;;;;;;24.33;13.63;;;21.60;21.60;;;;;;5000386;28;20021;-58
2022/03/23 09:10:06;;;;;;;21.60;14.43;;;21.20;22.00;;;;;;5031960;28;20632;-60
2022/03/23 09:12:32;;;;;;;25.25;14.45;;;20.50;22.60;;;;;;5034077;28;20125;-60
2022/03/23 09:14:58;;;;;;;26.75;14.20;;;19.90;23.00;;;;;;5015201;28;20112;-62
2022/03/23 09:17:23;;;;;;;22.88;14.45;;;19.60;23.40;;;;;;5034383;28;20438;-58
2022/03/23 09:19:50;;;;;;;21.85;15.20;;;19.30;23.70;;;;;;5032430;28;20025;-61
2022/03/23 09:22:16;;;;;;;25.85;15.07;;;19.00;24.00;;;;;;5016530;28;20164;-56
2022/03/23 09:24:41;;;;;;;28.95;15.32;;;18.80;24.20;;;;;;5033402;28;20029;-54
2022/03/23 09:27:07;;;;;;;31.33;15.82;;;18.60;24.50;;;;;;5015923;28;20025;-58
2022/03/23 09:29:34;;;;;;;24.10;14.93;;;18.50;24.60;;;;;;5016952;28;20381;-57
2022/03/23 09:32:00;;;;;;;20.17;14.63;;;18.40;24.70;;;;;;5016326;28;20044;-60
2022/03/23 09:34:26;;;;;;;26.02;15.63;;;18.40;24.70;;;;;;5016346;28;20466;-59
2022/03/23 09:39:36;;;;;;;22.48;15.18;;;18.20;25.10;;;;;;5034502;28;20049;-57
2022/03/23 09:42:05;;;;;;;26.33;15.30;;;18.00;25.30;;;;;;5033313;28;20029;-58
2022/03/23 09:44:34;;;;;;;25.33;16.48;;;17.90;25.50;;;;;;5034076;28;20036;-57
2022/03/23 09:47:01;;;;;;;27.10;16.98;;;17.70;25.50;;;;;;5033752;28;20028;-59
2022/03/23 09:49:28;;;;;;;25.23;15.50;;;17.80;25.50;;;;;;5015808;28;20492;-55
2022/03/23 09:51:54;;;;;;;25.80;16.58;;;17.80;25.60;;;;;;5015393;28;20032;-56
2022/03/23 09:54:23;;;;;;;24.45;16.13;;;17.80;25.70;;;;;;5033845;28;20045;-55
2022/03/23 09:56:49;;;;;;;23.80;15.75;;;17.70;25.80;;;;;;5032755;28;20028;-57
2022/03/23 09:59:16;;;;;;;33.53;17.63;;;17.60;25.90;;;;;;5032901;28;20053;-56
2022/03/23 10:02:02;;;;;;;26.25;15.90;;;17.60;26.00;;;;;;5014996;28;20033;-58
2022/03/23 10:05:10;;;;;;;28.92;16.98;;;17.80;26.10;;;;;;4985373;28;20041;-55
2022/03/23 10:07:56;;;;;;;22.00;15.25;;;17.90;26.20;;;;;;4916501;29;20055;-59
2022/03/23 10:11:05;;;;;;;29.20;14.95;;;17.80;26.20;;;;;;4931891;29;20028;-60
2022/03/23 10:14:19;;;;;;;23.40;15.65;;;17.80;26.30;;;;;;4913958;29;20048;-59
2022/03/23 10:17:15;;;;;;;26.30;15.57;;;17.90;26.30;;;;;;4910158;29;20135;-58
2022/03/23 10:19:44;;;;;;;27.50;15.77;;;18.00;26.30;;;;;;4913886;29;20051;-56
2022/03/23 10:22:13;;;;;;;24.02;15.35;;;18.00;26.30;;;;;;4912619;29;20135;-58
2022/03/23 10:24:39;;;;;;;28.25;15.73;;;18.10;26.20;;;;;;4914017;29;20156;-57
2022/03/23 10:27:13;;;;;;;23.33;15.88;;;18.20;26.20;;;;;;4897011;29;20048;-57
2022/03/23 10:29:46;;;;;;;20.92;15.77;;;18.10;26.30;;;;;;4913973;29;20028;-57
2022/03/23 10:32:13;;;;;;;;;;;18.00;26.40;;;;;;4897795;29;20047;-58
2022/03/23 10:34:44;;;;;;;23.08;16.85;;;18.00;26.40;;;;;;4913419;29;19914;-57
2022/03/23 10:37:29;;;;;;;49.63;18.20;;;18.10;26.40;;;;;;4912889;29;20107;-57
2022/03/23 10:39:57;;;;;;;37.45;16.42;;;18.10;26.30;;;;;;4912154;29;20497;-58
2022/03/23 10:42:26;;;;;;;34.35;16.33;;;18.30;26.40;;;;;;4913731;29;20032;-57
2022/03/23 10:45:16;;;;;;;39.75;17.65;;;18.40;26.40;;;;;;4962166;28;20048;-61
2022/03/23 10:47:44;;;;;;;35.47;16.73;;;18.40;26.40;;;;;;5010741;28;20048;-56
2022/03/23 10:50:23;;;;;;;22.00;15.55;;;18.40;26.40;;;;;;5011813;28;20109;-57
2022/03/23 10:52:59;;;;;;;32.30;17.48;;;18.60;26.20;;;;;;4994605;28;20028;-59
2022/03/23 10:55:30;;;;;;;28.08;15.55;;;18.70;26.10;;;;;;5011954;28;20030;-56
2022/03/23 10:57:59;;;;;;;25.75;16.38;;;18.90;26.00;;;;;;5011815;28;20517;-62
2022/03/23 11:00:32;;;;;;;28.73;18.50;;;19.00;25.90;;;;;;5009527;28;20021;-60
2022/03/23 11:02:59;;;;;;;24.52;17.98;;;19.00;25.80;;;;;;5011429;28;20029;-57
2022/03/23 11:05:44;;;;;;;22.75;16.20;;;19.00;25.80;;;;;;4994365;28;20034;-57
2022/03/23 11:08:24;;;;;;;23.13;15.68;;;19.10;25.60;;;;;;5011617;28;20274;-59
2022/03/23 11:16:29;;;;;;;19.83;14.95;;;19.30;25.60;;;;;;5011614;28;20498;-61
2022/03/23 11:19:19;;;;;;;25.42;14.77;;;19.30;25.50;;;;;;5011181;28;20140;-54
2022/03/23 11:22:06;;;;;;;19.55;14.52;;;19.30;25.50;;;;;;4993715;28;20040;-57
2022/03/23 11:24:40;;;;;;;21.45;15.50;;;19.40;25.50;;;;;;5011172;28;20034;-57
2022/03/23 11:27:16;;;;;;;22.77;15.02;;;19.50;25.10;;;;;;4993236;28;20036;-59
2022/03/23 11:29:43;;;;;;;23.85;14.23;;;19.50;25.10;;;;;;4993230;28;20030;-58
2022/03/23 11:32:16;;;;;;;20.70;14.40;;;19.50;24.80;;;;;;4993375;28;20066;-58
2022/03/23 11:34:48;;;;;;;23.20;13.77;;;19.60;24.80;;;;;;5011305;28;20431;-58
2022/03/23 11:37:19;;;;;;;22.48;14.93;;;19.60;24.80;;;;;;5011706;28;20097;-54
2022/03/23 11:39:48;;;;;;;19.05;14.50;;;19.80;25.00;;;;;;5011509;28;20478;-56
2022/03/23 11:42:16;;;;;;;29.30;14.60;;;19.90;25.00;;;;;;4993152;28;20283;-58
2022/03/23 11:44:48;;;;;;;19.80;14.40;;;20.10;24.70;;;;;;5011598;28;20033;-58
2022/03/23 11:47:35;;;;;;;22.13;13.93;;;20.20;24.20;;;;;;4993327;28;20139;-63
2022/03/23 11:50:26;;;;;;;21.48;13.70;;;20.20;24.10;;;;;;5010958;28;20108;-59
2022/03/23 11:53:45;;;;;;;30.40;14.85;;;20.20;24.00;;;;;;5012064;28;20402;-59
2022/03/23 11:56:22;;;;;;;22.02;13.20;;;20.30;23.90;;;;;;4933694;29;20050;-52
2022/03/23 11:58:49;;;;;;;18.90;12.85;;;20.40;23.90;;;;;;5010810;28;20034;-61
2022/03/23 12:01:15;;;;;;;23.80;14.82;;;20.50;23.90;;;;;;5010749;28;20291;-56
2022/03/23 12:03:41;;;;;;;22.13;13.70;;;20.50;23.80;;;;;;4993350;28;20041;-58
2022/03/23 12:06:16;;;;;;;19.75;12.73;;;20.50;23.60;;;;;;5010921;28;20026;-58
2022/03/23 12:09:00;;;;;;;19.23;13.45;;;20.60;23.60;;;;;;4993644;28;20076;-57
2022/03/23 12:11:50;;;;;;;20.33;12.65;;;20.80;23.40;;;;;;4993795;28;20197;-60
2022/03/23 12:14:32;;;;;;;25.63;13.10;;;20.90;23.20;;;;;;5010616;28;20293;-58
2022/03/23 12:17:08;;;;;;;22.60;13.00;;;20.90;23.20;;;;;;5009667;28;20026;-59
2022/03/23 12:20:03;;;;;;;19.55;12.65;;;20.90;23.30;;;;;;5011209;28;20034;-60
2022/03/23 12:22:33;;;;;;;19.10;13.30;;;20.90;23.00;;;;;;5010056;28;20077;-56
2022/03/23 12:25:20;;;;;;;20.10;12.48;;;21.10;23.00;;;;;;5011643;28;20073;-58
2022/03/23 12:27:57;;;;;;;20.08;12.77;;;21.10;22.90;;;;;;5013408;28;20034;-57
2022/03/23 12:30:26;;;;;;;20.45;12.73;;;21.20;22.60;;;;;;5013276;28;20026;-58
2022/03/23 12:32:57;;;;;;;58.50;15.43;;;21.20;22.60;;;;;;5013683;28;20034;-58
2022/03/23 12:35:30;;;;;;;15.55;11.85;;;21.20;22.60;;;;;;5014246;28;20030;-59
2022/03/23 12:37:59;;;;;;;20.85;12.25;;;21.30;22.50;;;;;;5014959;28;20033;-61
2022/03/23 12:40:43;;;;;;;21.10;12.30;;;21.40;22.40;;;;;;5013773;28;20534;-54
2022/03/23 12:43:09;;;;;;;17.25;11.77;;;21.50;22.30;;;;;;5012844;28;20026;-55
2022/03/23 12:45:39;;;;;;;29.08;14.13;;;21.60;22.30;;;;;;5012602;28;20169;-58
2022/03/23 12:59:35;;;;;;;21.48;11.07;;;21.80;22.30;;;;;;4970691;28;20349;-59
2022/03/23 13:02:19;;;;;;;15.85;10.82;;;21.80;22.10;;;;;;5012563;28;20125;-58
2022/03/23 13:04:45;;;;;;;15.38;10.45;;;21.70;22.10;;;;;;5014176;28;20033;-57
2022/03/23 13:07:29;;;;;;;20.23;11.25;;;21.70;21.80;;;;;;5011794;28;20029;-57
2022/03/23 13:10:14;;;;;;;15.68;9.75;;;21.60;21.70;;;;;;5012801;28;20092;-58
2022/03/23 13:12:44;;;;;;;15.82;11.52;;;21.60;21.70;;;;;;5028315;28;20103;-57
2022/03/23 13:15:15;;;;;;;16.13;9.88;;;21.70;21.60;;;;;;5014915;28;20516;-57
2022/03/23 13:17:43;;;;;;;20.58;10.55;;;21.80;21.50;;;;;;5016018;28;20027;-53
2022/03/23 13:20:11;;;;;;;17.80;9.52;;;21.90;21.00;;;;;;5033088;28;20072;-56
2022/03/23 13:22:38;;;;;;;12.75;9.05;;;21.80;20.80;;;;;;5033400;28;20390;-59
2022/03/23 13:25:21;;;;;;;11.05;8.75;;;21.80;20.50;;;;;;5015501;28;20074;-58
2022/03/23 13:27:48;;;;;;;12.55;8.73;;;21.70;20.10;;;;;;5015956;28;20032;-57
2022/03/23 13:30:17;;;;;;;18.77;9.30;;;21.60;20.30;;;;;;5032998;28;20029;-58
2022/03/23 13:32:47;;;;;;;18.02;12.18;;;21.70;20.50;;;;;;5015235;28;20029;-60
2022/03/23 13:35:24;;;;;;;20.20;12.52;;;21.80;20.50;;;;;;5033009;28;20367;-60
2022/03/23 13:37:57;;;;;;;17.80;9.13;;;21.80;20.50;;;;;;5032466;28;20033;-58
2022/03/23 13:43:19;;;;;;;15.57;8.48;;;21.80;19.90;;;;;;5014732;28;20075;-57
2022/03/23 13:43:20;;;;;;;13.48;8.88;;;21.80;19.70;;;;;;5032224;28;20029;-60
2022/03/23 13:45:51;;;;;;;12.20;9.00;;;21.80;19.90;;;;;;5033263;28;20044;-58
2022/03/23 13:48:17;;;;;;;17.58;8.88;;;21.90;20.00;;;;;;5015176;28;20133;-57
2022/03/23 13:50:51;;;;;;;14.60;9.35;;;22.00;19.50;;;;;;5033324;28;20040;-56
2022/03/23 13:53:19;;;;;;;14.40;10.57;;;22.00;19.60;;;;;;5015255;28;20026;-57
2022/03/23 13:55:51;;;;;;;12.90;8.20;;;22.00;19.90;;;;;;5033152;28;20386;-58
2022/03/23 13:58:18;;;;;;;15.20;9.27;;;21.90;19.70;;;;;;5014751;28;20025;-59
2022/03/23 14:00:47;;;;;;;12.65;8.35;;;21.80;19.90;;;;;;5032480;28;20470;-59
2022/03/23 14:03:19;;;;;;;12.02;8.32;;;21.80;19.50;;;;;;5014023;28;20087;-57
2022/03/23 14:06:03;;;;;;;17.17;9.23;;;21.70;19.60;;;;;;5014618;28;20112;-56
2022/03/23 14:08:30;;;;;;;20.83;9.52;;;21.80;19.60;;;;;;5032410;28;20081;-55
2022/03/23 14:10:56;;;;;;;20.88;10.57;;;21.70;19.70;;;;;;5032905;28;20339;-54